createdAt,value
2018-12-07T00:01:33.951Z,76.54
2018-12-07T00:04:02.462Z,76.43
2018-12-07T00:06:30.971Z,76.45
2018-12-07T00:08:59.588Z,76.43
2018-12-07T00:11:28.142Z,76.56
2018-12-07T00:13:56.636Z,76.37
2018-12-07T00:16:25.248Z,76.44
2018-12-07T00:18:53.838Z,76.83
2018-12-07T00:21:22.402Z,76.40
2018-12-07T00:23:51.035Z,76.95
2018-12-07T00:26:19.724Z,76.32
2018-12-07T00:28:48.275Z,77.04
2018-12-07T00:31:16.768Z,76.41
2018-12-07T00:33:45.280Z,76.35
2018-12-07T00:36:13.747Z,76.49
2018-12-07T00:38:42.664Z,76.72
2018-12-07T00:41:11.192Z,76.56
2018-12-07T00:43:39.731Z,76.25
2018-12-07T00:46:08.294Z,75.74
2018-12-07T00:48:36.916Z,75.86
2018-12-07T00:51:05.406Z,76.39
2018-12-07T00:53:33.984Z,76.28
2018-12-07T00:56:02.463Z,76.72
2018-12-07T00:58:30.968Z,76.37
2018-12-07T01:00:59.518Z,76.60
2018-12-07T01:03:28.012Z,76.43
2018-12-07T01:05:56.486Z,76.40
2018-12-07T01:08:25.087Z,75.81
2018-12-07T01:10:53.671Z,76.00
2018-12-07T01:13:22.268Z,76.68
2018-12-07T01:15:51.379Z,75.74
2018-12-07T01:18:20.021Z,76.10
2018-12-07T01:20:48.526Z,76.33
2018-12-07T01:23:17.046Z,75.83
2018-12-07T01:25:45.538Z,77.27
2018-12-07T01:28:14.630Z,76.73
2018-12-07T01:30:43.194Z,76.97
2018-12-07T01:33:12.307Z,76.93
2018-12-07T01:35:40.930Z,76.94
2018-12-07T01:38:09.815Z,77.00
2018-12-07T01:40:38.379Z,76.91
2018-12-07T01:43:06.969Z,77.82
2018-12-07T01:45:35.530Z,77.00
2018-12-07T01:48:04.067Z,77.32
2018-12-07T01:50:32.595Z,76.22
2018-12-07T01:53:01.128Z,76.99
2018-12-07T01:55:29.707Z,77.44
2018-12-07T01:57:58.346Z,77.53
2018-12-07T02:00:26.844Z,77.28
2018-12-07T02:02:55.361Z,76.83
2018-12-07T02:05:25.278Z,76.96
2018-12-07T02:07:53.878Z,76.72
2018-12-07T02:10:22.447Z,76.79
2018-12-07T02:12:50.962Z,76.98
2018-12-07T02:15:19.763Z,76.64
2018-12-07T02:17:48.333Z,76.06
2018-12-07T02:20:16.914Z,76.45
2018-12-07T02:22:45.535Z,77.13
2018-12-07T02:25:14.729Z,76.74
2018-12-07T02:27:48.627Z,75.87
2018-12-07T02:30:17.306Z,76.80
2018-12-07T02:32:45.865Z,76.66
2018-12-07T02:35:14.409Z,76.43
2018-12-07T02:37:42.961Z,76.09
2018-12-07T02:40:11.783Z,76.50
2018-12-07T02:42:40.448Z,76.81
2018-12-07T02:45:09.155Z,76.63
2018-12-07T02:47:37.760Z,76.78
2018-12-07T02:50:06.372Z,77.11
2018-12-07T02:52:34.907Z,76.84
2018-12-07T02:55:03.755Z,76.21
2018-12-07T02:57:32.251Z,76.40
2018-12-07T03:00:00.813Z,76.43
2018-12-07T03:02:29.391Z,76.24
2018-12-07T03:04:57.982Z,76.20
2018-12-07T03:07:26.555Z,75.84
2018-12-07T03:09:55.498Z,75.33
2018-12-07T03:12:24.034Z,75.76
2018-12-07T03:14:52.627Z,75.82
2018-12-07T03:17:21.233Z,76.21
2018-12-07T03:19:49.910Z,75.91
2018-12-07T03:22:18.623Z,75.59
2018-12-07T03:24:47.212Z,75.64
2018-12-07T03:27:15.678Z,76.20
2018-12-07T03:29:44.634Z,75.91
2018-12-07T03:32:14.093Z,76.52
2018-12-07T03:34:42.679Z,76.42
2018-12-07T03:37:17.879Z,76.32
2018-12-07T03:39:46.908Z,76.49
2018-12-07T03:42:15.488Z,75.96
2018-12-07T03:44:44.123Z,76.12
2018-12-07T03:47:12.779Z,76.18
2018-12-07T03:49:41.372Z,76.10
2018-12-07T03:52:09.955Z,76.42
2018-12-07T03:54:38.624Z,76.35
2018-12-07T03:57:07.092Z,77.14
2018-12-07T03:59:36.256Z,76.65
2018-12-07T04:02:05.601Z,77.13
2018-12-07T04:04:34.123Z,77.01
2018-12-07T04:07:02.816Z,77.35
2018-12-07T04:09:31.413Z,77.50
2018-12-07T04:11:59.987Z,76.34
2018-12-07T04:14:28.492Z,76.56
2018-12-07T04:16:57.055Z,77.59
2018-12-07T04:19:25.664Z,76.72
2018-12-07T04:21:54.224Z,77.13
2018-12-07T04:24:22.738Z,76.42
2018-12-07T04:26:51.297Z,76.60
2018-12-07T04:29:19.818Z,76.85
2018-12-07T04:31:48.319Z,76.73
2018-12-07T04:34:16.848Z,77.48
2018-12-07T04:36:45.412Z,76.73
2018-12-07T04:39:13.919Z,76.67
2018-12-07T04:41:43.099Z,77.03
2018-12-07T04:44:11.591Z,76.96
2018-12-07T04:46:40.101Z,77.15
2018-12-07T04:49:08.595Z,76.86
2018-12-07T04:51:37.106Z,77.26
2018-12-07T04:54:05.712Z,77.12
2018-12-07T04:56:34.197Z,77.34
2018-12-07T04:59:02.909Z,76.83
2018-12-07T05:01:31.393Z,77.15
2018-12-07T05:03:59.976Z,76.94
2018-12-07T05:06:28.637Z,76.76
2018-12-07T05:08:57.337Z,76.71
2018-12-07T05:11:26.003Z,77.06
2018-12-07T05:13:54.503Z,77.01
2018-12-07T05:16:23.096Z,76.79
2018-12-07T05:18:51.679Z,76.72
2018-12-07T05:21:20.322Z,76.67
2018-12-07T05:23:48.863Z,76.57
2018-12-07T05:26:17.439Z,76.01
2018-12-07T05:28:46.061Z,76.22
2018-12-07T05:31:14.661Z,75.55
2018-12-07T05:33:43.548Z,76.09
2018-12-07T05:36:12.559Z,75.79
2018-12-07T05:38:41.126Z,75.93
2018-12-07T05:41:09.683Z,76.00
2018-12-07T05:43:48.112Z,76.05
2018-12-07T05:46:16.645Z,75.98
2018-12-07T05:48:45.698Z,75.41
2018-12-07T05:51:14.834Z,74.81
2018-12-07T05:53:43.449Z,75.03
2018-12-07T05:56:14.015Z,74.58
2018-12-07T05:58:44.421Z,74.73
2018-12-07T06:01:14.959Z,74.56
2018-12-07T06:03:43.695Z,74.49
2018-12-07T06:06:13.310Z,74.99
2018-12-07T06:08:42.388Z,74.37
2018-12-07T06:11:11.195Z,74.13
2018-12-07T06:13:40.023Z,74.12
2018-12-07T06:16:08.768Z,74.19
2018-12-07T06:18:37.638Z,73.79
2018-12-07T06:21:07.059Z,74.03
2018-12-07T06:23:35.677Z,74.15
2018-12-07T06:26:04.661Z,73.48
2018-12-07T06:28:33.719Z,73.21
2018-12-07T06:31:02.607Z,72.97
2018-12-07T06:33:32.136Z,73.14
2018-12-07T06:36:01.028Z,72.95
2018-12-07T06:38:29.736Z,73.30
2018-12-07T06:40:58.910Z,72.78
2018-12-07T06:43:27.744Z,72.78
2018-12-07T06:45:56.346Z,72.84
2018-12-07T06:48:25.418Z,72.74
2018-12-07T06:50:54.493Z,72.54
2018-12-07T06:53:23.004Z,72.85
2018-12-07T06:55:51.503Z,72.72
2018-12-07T06:58:20.027Z,72.49
2018-12-07T07:00:48.835Z,72.65
2018-12-07T07:03:17.341Z,72.61
2018-12-07T07:05:45.962Z,72.18
2018-12-07T07:08:15.119Z,72.75
2018-12-07T07:10:43.608Z,72.29
2018-12-07T07:13:12.112Z,73.07
2018-12-07T07:15:40.723Z,73.09
2018-12-07T07:18:09.215Z,73.42
2018-12-07T07:20:37.864Z,72.43
2018-12-07T07:23:06.744Z,72.91
2018-12-07T07:25:35.386Z,72.66
2018-12-07T07:28:03.998Z,72.53
2018-12-07T07:30:32.517Z,73.05
2018-12-07T07:33:01.216Z,72.79
2018-12-07T07:35:29.817Z,72.88
2018-12-07T07:37:58.373Z,72.85
2018-12-07T07:40:26.938Z,73.24
2018-12-07T07:42:55.527Z,73.10
2018-12-07T07:45:24.300Z,72.91
2018-12-07T07:47:52.923Z,72.81
2018-12-07T07:50:21.542Z,73.78
2018-12-07T07:52:51.107Z,72.62
2018-12-07T07:55:19.672Z,73.21
2018-12-07T07:57:48.287Z,73.42
2018-12-07T08:00:16.851Z,73.75
2018-12-07T08:02:45.467Z,73.92
2018-12-07T08:05:14.131Z,73.48
2018-12-07T08:07:42.725Z,73.63
2018-12-07T08:10:11.327Z,73.53
2018-12-07T08:12:39.935Z,74.66
2018-12-07T08:15:08.813Z,73.78
2018-12-07T08:17:37.390Z,73.52
2018-12-07T08:20:06.114Z,73.33
2018-12-07T08:22:34.677Z,72.85
2018-12-07T08:25:03.487Z,73.07
2018-12-07T08:27:32.675Z,73.29
2018-12-07T08:30:01.190Z,73.04
2018-12-07T08:32:29.732Z,73.58
2018-12-07T08:34:58.314Z,73.13
2018-12-07T08:37:26.918Z,73.36
2018-12-07T08:39:55.511Z,72.99
2018-12-07T08:42:24.114Z,73.06
2018-12-07T08:44:52.679Z,73.21
2018-12-07T08:47:21.229Z,73.68
2018-12-07T08:49:55.893Z,73.13
2018-12-07T08:52:24.627Z,73.14
2018-12-07T08:54:53.372Z,73.16
2018-12-07T08:57:22.094Z,73.12
2018-12-07T08:59:50.652Z,72.73
2018-12-07T09:02:19.314Z,73.25
2018-12-07T09:04:48.526Z,72.44
2018-12-07T09:07:17.837Z,72.81
2018-12-07T09:09:46.546Z,72.76
2018-12-07T09:12:15.156Z,72.54
2018-12-07T09:14:43.723Z,72.38
2018-12-07T09:17:12.346Z,71.65
2018-12-07T09:19:41.439Z,72.00
2018-12-07T09:22:10.527Z,71.57
2018-12-07T09:24:39.149Z,72.00
2018-12-07T09:27:07.879Z,72.21
2018-12-07T09:29:37.081Z,72.00
2018-12-07T09:32:05.987Z,72.69
2018-12-07T09:34:35.062Z,72.18
2018-12-07T09:37:03.601Z,72.21
2018-12-07T09:39:32.197Z,72.02
2018-12-07T09:42:01.611Z,72.33
2018-12-07T09:44:30.158Z,73.03
2018-12-07T09:46:58.772Z,72.76
2018-12-07T09:49:27.262Z,72.05
2018-12-07T09:51:55.834Z,72.02
2018-12-07T09:54:24.394Z,72.12
2018-12-07T09:56:52.912Z,72.26
2018-12-07T09:59:22.147Z,71.86
2018-12-07T10:01:50.709Z,71.25
2018-12-07T10:04:19.292Z,72.04
2018-12-07T10:06:47.902Z,72.46
2018-12-07T10:09:17.086Z,72.57
2018-12-07T10:11:45.674Z,72.37
2018-12-07T10:14:14.246Z,73.05
2018-12-07T10:16:42.834Z,72.25
2018-12-07T10:19:11.889Z,72.97
2018-12-07T10:21:40.447Z,72.38
2018-12-07T10:24:09.057Z,72.85
2018-12-07T10:26:37.624Z,72.75
2018-12-07T10:29:06.262Z,72.82
2018-12-07T10:31:34.799Z,72.54
2018-12-07T10:34:03.476Z,72.14
2018-12-07T10:36:31.992Z,72.56
2018-12-07T10:39:01.216Z,72.83
2018-12-07T10:41:29.746Z,71.78
2018-12-07T10:43:58.559Z,71.51
2018-12-07T10:46:27.150Z,71.52
2018-12-07T10:48:56.710Z,71.02
2018-12-07T10:51:25.243Z,70.54
2018-12-07T10:53:54.167Z,71.36
2018-12-07T10:56:22.757Z,71.19
2018-12-07T10:58:51.326Z,71.50
2018-12-07T11:01:25.363Z,71.24
2018-12-07T11:03:59.154Z,70.60
2018-12-07T11:06:33.515Z,70.32
2018-12-07T11:09:06.212Z,69.85
2018-12-07T11:11:44.765Z,69.12
2018-12-07T11:14:15.587Z,69.02
2018-12-07T11:16:49.487Z,69.71
2018-12-07T11:19:23.246Z,69.08
2018-12-07T11:21:57.074Z,69.19
2018-12-07T11:24:30.739Z,68.06
2018-12-07T11:27:04.606Z,67.87
2018-12-07T11:29:38.420Z,66.45
2018-12-07T11:32:12.644Z,65.50
2018-12-07T11:34:46.435Z,65.45
2018-12-07T11:37:15.118Z,65.38
2018-12-07T11:39:43.731Z,64.28
2018-12-07T11:42:12.355Z,64.29
2018-12-07T11:44:40.859Z,64.25
2018-12-07T11:47:09.875Z,64.09
2018-12-07T11:49:38.394Z,63.51
2018-12-07T11:52:07.002Z,63.06
2018-12-07T11:54:35.571Z,63.49
2018-12-07T11:57:04.419Z,63.30
2018-12-07T11:59:33.129Z,62.63
2018-12-07T12:02:01.774Z,62.71
2018-12-07T12:04:30.258Z,62.56
2018-12-07T12:06:59.533Z,62.53
2018-12-07T12:09:28.046Z,62.35
2018-12-07T12:11:56.641Z,62.28
2018-12-07T12:14:25.294Z,62.28
2018-12-07T12:16:53.907Z,61.82
2018-12-07T12:19:22.481Z,62.38
2018-12-07T12:21:50.993Z,62.99
2018-12-07T12:24:19.563Z,61.57
2018-12-07T12:26:48.186Z,61.61
2018-12-07T12:29:16.761Z,61.57
2018-12-07T12:31:45.307Z,62.19
2018-12-07T12:34:14.131Z,62.14
2018-12-07T12:36:42.641Z,61.96
2018-12-07T12:39:11.201Z,62.03
2018-12-07T12:41:46.596Z,61.92
2018-12-07T12:44:10.461Z,62.51
2018-12-07T12:46:39.690Z,61.59
2018-12-07T12:49:08.362Z,61.70
2018-12-07T12:51:38.133Z,62.19
2018-12-07T12:54:06.671Z,62.42
2018-12-07T12:56:35.252Z,62.67
2018-12-07T12:59:03.795Z,62.34
2018-12-07T13:01:32.428Z,62.39
2018-12-07T13:04:01.579Z,62.29
2018-12-07T13:06:30.178Z,62.15
2018-12-07T13:08:58.726Z,62.68
2018-12-07T13:11:27.275Z,62.34
2018-12-07T13:13:55.839Z,62.08
2018-12-07T13:16:24.442Z,62.07
2018-12-07T13:18:53.003Z,62.60
2018-12-07T13:21:21.613Z,62.66
2018-12-07T13:23:50.262Z,63.13
2018-12-07T13:26:18.797Z,63.18
2018-12-07T13:28:47.366Z,62.78
2018-12-07T13:31:15.976Z,62.76
2018-12-07T13:33:44.535Z,62.48
2018-12-07T13:36:13.155Z,62.07
2018-12-07T13:38:43.184Z,62.91
2018-12-07T13:41:11.911Z,62.71
2018-12-07T13:43:41.635Z,62.00
2018-12-07T13:46:10.599Z,62.35
2018-12-07T13:48:39.361Z,62.57
2018-12-07T13:51:08.296Z,62.30
2018-12-07T13:53:38.825Z,62.41
2018-12-07T13:56:07.468Z,62.35
2018-12-07T13:58:36.187Z,62.71
2018-12-07T14:01:05.105Z,62.69
2018-12-07T14:03:33.674Z,63.28
2018-12-07T14:06:02.597Z,63.05
2018-12-07T14:08:31.411Z,62.95
2018-12-07T14:11:00.340Z,63.30
2018-12-07T14:13:29.031Z,63.05
2018-12-07T14:15:57.686Z,62.92
2018-12-07T14:18:26.396Z,62.98
2018-12-07T14:20:55.050Z,63.29
2018-12-07T14:23:23.689Z,63.77
2018-12-07T14:25:52.292Z,63.89
2018-12-07T14:28:21.234Z,64.66
2018-12-07T14:30:49.895Z,63.73
2018-12-07T14:33:19.194Z,64.86
2018-12-07T14:35:47.985Z,64.34
2018-12-07T14:38:17.459Z,64.49
2018-12-07T14:40:46.274Z,64.80
2018-12-07T14:43:15.975Z,64.89
2018-12-07T14:45:44.594Z,65.20
2018-12-07T14:48:14.247Z,65.42
2018-12-07T14:50:42.973Z,67.54
2018-12-07T14:53:11.936Z,67.18
2018-12-07T14:55:41.581Z,66.81
2018-12-07T14:58:10.422Z,68.44
2018-12-07T15:00:39.201Z,67.34
2018-12-07T15:03:08.559Z,67.81
2018-12-07T15:05:37.263Z,66.92
2018-12-07T15:08:06.141Z,67.28
2018-12-07T15:10:34.731Z,67.39
2018-12-07T15:13:03.369Z,67.20
2018-12-07T15:15:32.235Z,68.27
2018-12-07T15:18:00.984Z,67.60
2018-12-07T15:20:30.166Z,68.08
2018-12-07T15:22:59.360Z,68.85
2018-12-07T15:25:28.234Z,69.61
2018-12-07T15:27:56.943Z,69.83
2018-12-07T15:30:28.392Z,70.82
2018-12-07T15:32:57.290Z,70.49
2018-12-07T15:35:26.117Z,71.02
2018-12-07T15:37:54.881Z,71.48
2018-12-07T15:40:23.543Z,71.82
2018-12-07T15:42:52.431Z,71.46
2018-12-07T15:45:21.167Z,71.66
2018-12-07T15:47:49.820Z,71.57
2018-12-07T15:50:25.115Z,70.68
2018-12-07T15:52:49.356Z,71.05
2018-12-07T15:55:18.071Z,71.13
2018-12-07T15:57:46.751Z,71.20
2018-12-07T16:00:15.533Z,70.97
2018-12-07T16:02:44.221Z,71.40
2018-12-07T16:05:13.015Z,72.74
2018-12-07T16:07:41.702Z,72.67
2018-12-07T16:10:10.344Z,73.34
2018-12-07T16:12:39.171Z,73.10
2018-12-07T16:15:08.252Z,72.09
2018-12-07T16:17:36.767Z,72.55
2018-12-07T16:20:10.308Z,73.22
2018-12-07T16:22:39.167Z,73.06
2018-12-07T16:25:08.053Z,72.89
2018-12-07T16:27:36.738Z,72.82
2018-12-07T16:30:07.223Z,71.65
2018-12-07T16:32:36.130Z,70.79
2018-12-07T16:35:05.668Z,69.68
2018-12-07T16:37:34.546Z,70.23
2018-12-07T16:40:03.894Z,69.88
2018-12-07T16:42:32.744Z,69.21
2018-12-07T16:45:01.742Z,69.55
2018-12-07T16:47:30.524Z,69.10
2018-12-07T16:49:59.420Z,68.89
2018-12-07T16:52:28.187Z,68.80
2018-12-07T16:54:56.770Z,68.54
2018-12-07T16:57:25.310Z,69.21
2018-12-07T16:59:54.233Z,69.50
2018-12-07T17:02:22.803Z,70.18
2018-12-07T17:04:53.854Z,69.93
2018-12-07T17:07:23.588Z,70.25
2018-12-07T17:09:54.906Z,69.57
2018-12-07T17:12:24.861Z,69.29
2018-12-07T17:14:56.246Z,69.50
2018-12-07T17:17:26.335Z,68.97
2018-12-07T17:19:56.824Z,67.64
2018-12-07T17:22:28.615Z,68.09
2018-12-07T17:24:59.679Z,68.38
2018-12-07T17:27:30.610Z,68.02
2018-12-07T17:30:06.289Z,67.62
2018-12-07T17:32:38.237Z,67.33
2018-12-07T17:35:10.695Z,67.20
2018-12-07T17:37:41.048Z,67.53
2018-12-07T17:40:09.926Z,66.71
2018-12-07T17:42:38.977Z,66.45
2018-12-07T17:45:07.892Z,66.09
2018-12-07T17:47:36.541Z,66.74
2018-12-07T17:50:06.517Z,66.74
2018-12-07T17:52:35.159Z,67.08
2018-12-07T17:55:03.756Z,66.48
2018-12-07T17:57:32.562Z,66.40
2018-12-07T18:00:01.531Z,66.76
2018-12-07T18:02:31.933Z,65.88
2018-12-07T18:05:01.412Z,66.33
2018-12-07T18:07:33.387Z,65.62
2018-12-07T18:10:02.527Z,66.06
2018-12-07T18:12:31.213Z,65.95
2018-12-07T18:15:00.485Z,66.28
2018-12-07T18:17:29.864Z,65.47
2018-12-07T18:19:58.943Z,65.74
2018-12-07T18:22:28.920Z,65.00
2018-12-07T18:24:57.963Z,65.07
2018-12-07T18:27:26.603Z,64.63
2018-12-07T18:29:55.511Z,64.60
2018-12-07T18:32:25.243Z,64.38
2018-12-07T18:34:54.368Z,64.36
2018-12-07T18:37:23.758Z,64.02
2018-12-07T18:39:52.583Z,63.99
2018-12-07T18:42:25.593Z,64.15
2018-12-07T18:44:55.600Z,64.73
2018-12-07T18:47:24.943Z,64.17
2018-12-07T18:49:58.481Z,64.38
2018-12-07T18:52:28.705Z,64.10
2018-12-07T18:54:57.629Z,64.50
2018-12-07T18:57:26.984Z,64.15
2018-12-07T18:59:56.004Z,65.14
2018-12-07T19:02:24.852Z,64.78
2018-12-07T19:04:53.784Z,64.36
2018-12-07T19:07:22.860Z,64.58
2018-12-07T19:09:51.782Z,64.41
2018-12-07T19:12:20.614Z,64.81
2018-12-07T19:14:49.269Z,64.54
2018-12-07T19:17:18.268Z,64.22
2018-12-07T19:19:47.228Z,64.32
2018-12-07T19:22:16.859Z,64.61
2018-12-07T19:24:47.946Z,64.64
2018-12-07T19:27:17.081Z,64.62
2018-12-07T19:29:47.361Z,64.13
2018-12-07T19:32:16.632Z,64.60
2018-12-07T19:34:48.147Z,64.82
2018-12-07T19:37:18.196Z,64.69
2018-12-07T19:39:47.148Z,66.19
2018-12-07T19:42:17.221Z,66.91
2018-12-07T19:44:47.488Z,66.61
2018-12-07T19:47:18.478Z,66.67
2018-12-07T19:49:49.761Z,66.87
2018-12-07T19:52:20.785Z,67.30
2018-12-07T19:54:49.745Z,68.74
2018-12-07T19:57:20.235Z,67.57
2018-12-07T19:59:50.291Z,68.55
2018-12-07T20:02:21.075Z,67.42
2018-12-07T20:04:52.552Z,67.12
2018-12-07T20:07:21.872Z,67.63
2018-12-07T20:09:50.625Z,67.33
2018-12-07T20:12:19.559Z,67.92
2018-12-07T20:14:48.175Z,67.83
2018-12-07T20:17:16.804Z,67.91
2018-12-07T20:19:45.702Z,67.95
2018-12-07T20:22:14.574Z,67.77
2018-12-07T20:24:44.937Z,69.12
2018-12-07T20:27:13.746Z,67.97
2018-12-07T20:29:42.485Z,67.54
2018-12-07T20:32:11.135Z,67.91
2018-12-07T20:34:40.405Z,67.62
2018-12-07T20:37:09.563Z,67.82
2018-12-07T20:39:38.753Z,67.86
2018-12-07T20:42:07.719Z,67.79
2018-12-07T20:44:36.633Z,67.22
2018-12-07T20:47:06.631Z,67.56
2018-12-07T20:49:35.617Z,67.20
2018-12-07T20:52:04.400Z,67.38
2018-12-07T20:54:33.118Z,66.91
2018-12-07T20:57:02.205Z,67.28
2018-12-07T20:59:31.768Z,66.76
2018-12-07T21:02:01.140Z,66.67
2018-12-07T21:04:36.271Z,67.31
2018-12-07T21:07:21.466Z,66.73
2018-12-07T21:10:28.991Z,67.08
2018-12-07T21:15:08.671Z,67.54
2018-12-07T21:17:38.649Z,66.99
2018-12-07T21:20:17.665Z,67.25
2018-12-07T21:22:46.371Z,66.33
2018-12-07T21:25:15.261Z,66.72
2018-12-07T21:27:44.611Z,66.16
2018-12-07T21:30:40.834Z,66.92
2018-12-07T21:33:10.026Z,66.90
2018-12-07T21:36:40.972Z,66.81
2018-12-07T21:39:24.711Z,66.77
2018-12-07T21:41:53.274Z,67.24
2018-12-07T21:44:21.942Z,67.39
2018-12-07T21:46:50.522Z,67.25
2018-12-07T21:49:20.099Z,67.49
2018-12-07T21:52:23.546Z,67.00
2018-12-07T21:54:54.079Z,67.26
2018-12-07T21:57:24.430Z,66.80
2018-12-07T21:59:53.312Z,66.80
2018-12-07T22:02:22.565Z,66.66
2018-12-07T22:04:51.593Z,66.73
2018-12-07T22:07:20.435Z,66.67
2018-12-07T22:09:49.506Z,67.01
2018-12-07T22:12:18.695Z,65.57
2018-12-07T22:14:47.513Z,65.70
2018-12-07T22:17:16.506Z,64.88
2018-12-07T22:19:45.287Z,65.11
2018-12-07T22:22:13.903Z,64.41
2018-12-07T22:24:42.471Z,63.56
2018-12-07T22:27:11.350Z,63.62
2018-12-07T22:29:40.180Z,62.44
2018-12-07T22:32:08.968Z,62.95
2018-12-07T22:34:38.192Z,62.16
2018-12-07T22:37:06.834Z,61.83
2018-12-07T22:39:35.403Z,62.86
2018-12-07T22:42:04.172Z,62.85
2018-12-07T22:44:33.206Z,62.82
2018-12-07T22:47:02.100Z,62.95
2018-12-07T22:49:30.798Z,62.85
2018-12-07T22:51:59.291Z,62.94
2018-12-07T22:54:27.883Z,65.21
2018-12-07T22:56:56.450Z,65.79
2018-12-07T22:59:24.995Z,67.15
2018-12-07T23:01:53.648Z,68.55
2018-12-07T23:04:22.993Z,69.71
2018-12-07T23:06:51.558Z,69.34
2018-12-07T23:09:20.172Z,68.90
2018-12-07T23:11:48.724Z,68.82
2018-12-07T23:14:17.351Z,68.43
2018-12-07T23:16:45.967Z,68.15
2018-12-07T23:19:14.475Z,67.63
2018-12-07T23:21:42.992Z,66.68
2018-12-07T23:24:11.995Z,66.37
2018-12-07T23:26:40.482Z,65.90
2018-12-07T23:29:20.671Z,65.46
2018-12-07T23:31:49.268Z,64.43
2018-12-07T23:34:17.819Z,64.67
2018-12-07T23:36:46.374Z,64.03
2018-12-07T23:39:14.926Z,63.35
2018-12-07T23:41:43.498Z,63.11
2018-12-07T23:44:12.858Z,63.51
2018-12-07T23:46:41.687Z,62.52
2018-12-07T23:49:10.270Z,62.92
2018-12-07T23:51:38.882Z,62.34
2018-12-07T23:54:07.478Z,62.43
2018-12-07T23:56:35.956Z,60.22
2018-12-07T23:59:04.542Z,60.60
